Pagrindinis puslapis
METAR-TAF:

METAR-TAF

Oro uostai :

Dawson City, Jukonas, Kanada

platuma: 64-03N, ilguma: 139-08W, Aukštis: 370 m

Dabartinis oras

Ataskaita buvo paskelbta 5 valandos ir 45 minutes, ne 23:00 UTC
Vėjas 2 kt iš Pietų/Pietvakarių
Temperatūra -22°C
Drėgmė 58%
Slėgis 1016 hPa
Matomumas: 32.2 km
Giedras dangus

METAR: CYDA 282300Z 20002KT 20SM SKC M22/M28 A3001 RMK LAST STFD OBS/NXT 291400Z SLP217

Laikas: 20:45 (04:45 UTC)

Prognozė

Ataskaita buvo paskelbta 13 valandos ir 7 minutes, ne 15:38 UTC
Prognozė galioja nuo 28 metu 16 UTC su 28 metu 23 UTC
Vėjas 3 kt nuo kintamojo kryptimis
Matomumas: 10 km
Mažai debesys ne aukštis 15000 ft

TAF: CYDA 281538Z 2816/2823 VRB03KT P6SM FEW150 RMK NXT FCST WILL BE ISSUED AT 291545Z

Orai ataskaitas ir orų prognozės (METAR, TAF).

turimą stotys yra geltonos ir raudonos taškus žemėlapyje.

Perkelti pele per norėdami pamatyti stoties vardą.

Tada spustelėkite, norėdami matyti oro stebėjimo ir prognozės.

Norėdami pakeisti žemėlapį: spustelėkite ant žalios mygtukų su juodo kryžiaus žemyn,; žalią mygtuką su brūkšneliu, jei norite nutolinti; arba žalių rodyklių gretimoms žemėlapius.


METAR-TAF: